sensor_id;sensor_type;location;lat;lon;timestamp;temperature;humidity
16955;DHT22;8594;52.052;8.354;2023-01-24T00:00:07;3.50;99.90
16955;DHT22;8594;52.052;8.354;2023-01-24T00:02:38;3.50;99.90
16955;DHT22;8594;52.052;8.354;2023-01-24T00:05:05;3.50;99.90
16955;DHT22;8594;52.052;8.354;2023-01-24T00:07:33;3.50;99.90
16955;DHT22;8594;52.052;8.354;2023-01-24T00:10:00;3.50;99.90
16955;DHT22;8594;52.052;8.354;2023-01-24T00:12:28;3.60;99.90
16955;DHT22;8594;52.052;8.354;2023-01-24T00:14:55;3.80;99.90
16955;DHT22;8594;52.052;8.354;2023-01-24T00:17:23;3.80;99.90
16955;DHT22;8594;52.052;8.354;2023-01-24T00:19:51;3.70;99.90
16955;DHT22;8594;52.052;8.354;2023-01-24T00:22:18;3.50;99.90
16955;DHT22;8594;52.052;8.354;2023-01-24T00:24:45;3.50;99.90
16955;DHT22;8594;52.052;8.354;2023-01-24T00:27:13;3.40;99.90
16955;DHT22;8594;52.052;8.354;2023-01-24T00:29:41;3.40;99.90
16955;DHT22;8594;52.052;8.354;2023-01-24T00:32:07;3.40;99.90
16955;DHT22;8594;52.052;8.354;2023-01-24T00:34:34;3.40;99.90
16955;DHT22;8594;52.052;8.354;2023-01-24T00:37:03;3.40;99.90
16955;DHT22;8594;52.052;8.354;2023-01-24T00:39:30;3.60;99.90
16955;DHT22;8594;52.052;8.354;2023-01-24T00:41:56;3.60;99.90
16955;DHT22;8594;52.052;8.354;2023-01-24T00:44:23;3.50;99.90
16955;DHT22;8594;52.052;8.354;2023-01-24T00:46:50;3.40;99.90
16955;DHT22;8594;52.052;8.354;2023-01-24T00:49:17;3.30;99.90
16955;DHT22;8594;52.052;8.354;2023-01-24T00:51:44;3.40;99.90
16955;DHT22;8594;52.052;8.354;2023-01-24T00:54:13;3.50;99.90
16955;DHT22;8594;52.052;8.354;2023-01-24T00:56:39;3.60;99.90
16955;DHT22;8594;52.052;8.354;2023-01-24T00:59:06;3.50;99.90
16955;DHT22;8594;52.052;8.354;2023-01-24T01:01:33;3.30;99.90
16955;DHT22;8594;52.052;8.354;2023-01-24T01:04:00;3.30;99.90
16955;DHT22;8594;52.052;8.354;2023-01-24T01:06:27;3.30;99.90
16955;DHT22;8594;52.052;8.354;2023-01-24T01:08:54;3.30;99.90
16955;DHT22;8594;52.052;8.354;2023-01-24T01:11:22;3.60;99.90
16955;DHT22;8594;52.052;8.354;2023-01-24T01:13:49;3.50;99.90
16955;DHT22;8594;52.052;8.354;2023-01-24T01:16:18;3.20;99.90
16955;DHT22;8594;52.052;8.354;2023-01-24T01:18:46;3.30;99.90
16955;DHT22;8594;52.052;8.354;2023-01-24T01:21:16;3.30;99.90
16955;DHT22;8594;52.052;8.354;2023-01-24T01:23:45;3.30;99.90
16955;DHT22;8594;52.052;8.354;2023-01-24T01:26:15;3.20;99.90
16955;DHT22;8594;52.052;8.354;2023-01-24T01:28:44;3.30;99.90
16955;DHT22;8594;52.052;8.354;2023-01-24T01:31:12;3.40;99.90
16955;DHT22;8594;52.052;8.354;2023-01-24T01:33:39;3.50;99.90
16955;DHT22;8594;52.052;8.354;2023-01-24T01:36:07;3.60;99.90
16955;DHT22;8594;52.052;8.354;2023-01-24T01:38:34;3.70;99.90
16955;DHT22;8594;52.052;8.354;2023-01-24T01:41:01;3.80;99.90
16955;DHT22;8594;52.052;8.354;2023-01-24T01:43:29;3.70;99.90
16955;DHT22;8594;52.052;8.354;2023-01-24T01:46:05;3.50;99.90
16955;DHT22;8594;52.052;8.354;2023-01-24T01:48:44;3.40;99.90
16955;DHT22;8594;52.052;8.354;2023-01-24T01:51:17;3.30;99.90
16955;DHT22;8594;52.052;8.354;2023-01-24T01:53:50;3.30;99.90
16955;DHT22;8594;52.052;8.354;2023-01-24T01:56:24;3.30;99.90
16955;DHT22;8594;52.052;8.354;2023-01-24T01:58:58;3.10;99.90
16955;DHT22;8594;52.052;8.354;2023-01-24T02:01:30;3.20;99.90
16955;DHT22;8594;52.052;8.354;2023-01-24T02:04:03;3.30;99.90
16955;DHT22;8594;52.052;8.354;2023-01-24T02:06:43;3.40;99.90
16955;DHT22;8594;52.052;8.354;2023-01-24T02:09:20;3.40;99.90
16955;DHT22;8594;52.052;8.354;2023-01-24T02:11:50;3.20;99.90
16955;DHT22;8594;52.052;8.354;2023-01-24T02:14:22;3.00;99.90
16955;DHT22;8594;52.052;8.354;2023-01-24T02:17:12;3.00;99.90
16955;DHT22;8594;52.052;8.354;2023-01-24T02:19:54;3.10;99.90
16955;DHT22;8594;52.052;8.354;2023-01-24T02:22:37;3.10;99.90
16955;DHT22;8594;52.052;8.354;2023-01-24T02:25:15;3.10;99.90
16955;DHT22;8594;52.052;8.354;2023-01-24T02:27:49;3.30;99.90
16955;DHT22;8594;52.052;8.354;2023-01-24T02:30:16;3.30;99.90
16955;DHT22;8594;52.052;8.354;2023-01-24T02:32:43;3.30;99.90
16955;DHT22;8594;52.052;8.354;2023-01-24T02:35:22;3.10;99.90
16955;DHT22;8594;52.052;8.354;2023-01-24T02:37:51;3.00;99.90
16955;DHT22;8594;52.052;8.354;2023-01-24T02:40:18;2.90;99.90
16955;DHT22;8594;52.052;8.354;2023-01-24T02:42:46;3.00;99.90
16955;DHT22;8594;52.052;8.354;2023-01-24T02:45:18;3.10;99.90
16955;DHT22;8594;52.052;8.354;2023-01-24T02:47:49;3.20;99.90
16955;DHT22;8594;52.052;8.354;2023-01-24T02:50:21;3.10;99.90
16955;DHT22;8594;52.052;8.354;2023-01-24T02:52:49;3.10;99.90
16955;DHT22;8594;52.052;8.354;2023-01-24T02:55:34;3.00;99.90
16955;DHT22;8594;52.052;8.354;2023-01-24T02:58:23;2.90;99.90
16955;DHT22;8594;52.052;8.354;2023-01-24T03:00:51;2.90;99.90
16955;DHT22;8594;52.052;8.354;2023-01-24T03:03:18;3.10;99.90
16955;DHT22;8594;52.052;8.354;2023-01-24T03:05:44;3.10;99.90
16955;DHT22;8594;52.052;8.354;2023-01-24T03:08:22;3.30;99.90
16955;DHT22;8594;52.052;8.354;2023-01-24T03:10:50;3.30;99.90
16955;DHT22;8594;52.052;8.354;2023-01-24T03:13:17;3.40;99.90
16955;DHT22;8594;52.052;8.354;2023-01-24T03:16:04;3.40;99.90
16955;DHT22;8594;52.052;8.354;2023-01-24T03:18:50;3.40;99.90
16955;DHT22;8594;52.052;8.354;2023-01-24T03:21:35;3.30;99.90
16955;DHT22;8594;52.052;8.354;2023-01-24T03:24:20;3.20;99.90
16955;DHT22;8594;52.052;8.354;2023-01-24T03:27:05;3.30;99.90
16955;DHT22;8594;52.052;8.354;2023-01-24T03:29:49;3.30;99.90
16955;DHT22;8594;52.052;8.354;2023-01-24T03:32:35;3.20;99.90
16955;DHT22;8594;52.052;8.354;2023-01-24T03:35:21;3.10;99.90
16955;DHT22;8594;52.052;8.354;2023-01-24T03:37:48;3.20;99.90
16955;DHT22;8594;52.052;8.354;2023-01-24T03:40:33;2.90;99.90
16955;DHT22;8594;52.052;8.354;2023-01-24T03:43:01;2.80;99.90
16955;DHT22;8594;52.052;8.354;2023-01-24T03:45:30;2.80;99.90
16955;DHT22;8594;52.052;8.354;2023-01-24T03:48:01;2.80;99.90
16955;DHT22;8594;52.052;8.354;2023-01-24T03:50:31;2.70;99.90
16955;DHT22;8594;52.052;8.354;2023-01-24T03:53:18;2.70;99.90
16955;DHT22;8594;52.052;8.354;2023-01-24T03:55:46;2.80;99.90
16955;DHT22;8594;52.052;8.354;2023-01-24T03:58:17;2.70;99.90
16955;DHT22;8594;52.052;8.354;2023-01-24T04:00:43;2.80;99.90
16955;DHT22;8594;52.052;8.354;2023-01-24T04:03:11;2.90;99.90
16955;DHT22;8594;52.052;8.354;2023-01-24T04:05:38;2.90;99.90
16955;DHT22;8594;52.052;8.354;2023-01-24T04:08:06;2.90;99.90
16955;DHT22;8594;52.052;8.354;2023-01-24T04:10:34;2.90;99.90
16955;DHT22;8594;52.052;8.354;2023-01-24T04:13:01;3.00;99.90
16955;DHT22;8594;52.052;8.354;2023-01-24T04:15:30;3.00;99.90
16955;DHT22;8594;52.052;8.354;2023-01-24T04:17:59;3.00;99.90
16955;DHT22;8594;52.052;8.354;2023-01-24T04:20:30;2.80;99.90
16955;DHT22;8594;52.052;8.354;2023-01-24T04:23:00;3.00;99.90
16955;DHT22;8594;52.052;8.354;2023-01-24T04:25:28;3.10;99.90
16955;DHT22;8594;52.052;8.354;2023-01-24T04:27:55;3.00;99.90
16955;DHT22;8594;52.052;8.354;2023-01-24T04:30:23;3.00;99.90
16955;DHT22;8594;52.052;8.354;2023-01-24T04:32:50;3.20;99.90
16955;DHT22;8594;52.052;8.354;2023-01-24T04:35:18;3.30;99.90
16955;DHT22;8594;52.052;8.354;2023-01-24T04:37:48;3.50;99.90
16955;DHT22;8594;52.052;8.354;2023-01-24T04:40:15;3.40;99.90
16955;DHT22;8594;52.052;8.354;2023-01-24T04:42:42;3.30;99.90
16955;DHT22;8594;52.052;8.354;2023-01-24T04:45:10;3.20;99.90
16955;DHT22;8594;52.052;8.354;2023-01-24T04:47:37;3.20;99.90
16955;DHT22;8594;52.052;8.354;2023-01-24T04:50:05;2.90;99.90
16955;DHT22;8594;52.052;8.354;2023-01-24T04:52:33;3.00;99.90
16955;DHT22;8594;52.052;8.354;2023-01-24T04:55:02;2.90;99.90
16955;DHT22;8594;52.052;8.354;2023-01-24T04:57:29;3.00;99.90
16955;DHT22;8594;52.052;8.354;2023-01-24T04:59:56;3.00;99.90
16955;DHT22;8594;52.052;8.354;2023-01-24T05:02:23;2.90;99.90
16955;DHT22;8594;52.052;8.354;2023-01-24T05:04:50;3.00;99.90
16955;DHT22;8594;52.052;8.354;2023-01-24T05:07:17;3.00;99.90
16955;DHT22;8594;52.052;8.354;2023-01-24T05:09:43;2.90;99.90
16955;DHT22;8594;52.052;8.354;2023-01-24T05:12:12;2.90;99.90
16955;DHT22;8594;52.052;8.354;2023-01-24T05:14:38;2.80;99.90
16955;DHT22;8594;52.052;8.354;2023-01-24T05:17:05;2.90;99.90
16955;DHT22;8594;52.052;8.354;2023-01-24T05:19:32;2.70;99.90
16955;DHT22;8594;52.052;8.354;2023-01-24T05:21:59;2.70;99.90
16955;DHT22;8594;52.052;8.354;2023-01-24T05:24:25;2.60;99.90
16955;DHT22;8594;52.052;8.354;2023-01-24T05:26:52;2.70;99.90
16955;DHT22;8594;52.052;8.354;2023-01-24T05:29:21;2.80;99.90
16955;DHT22;8594;52.052;8.354;2023-01-24T05:31:49;2.80;99.90
16955;DHT22;8594;52.052;8.354;2023-01-24T05:34:16;2.70;99.90
16955;DHT22;8594;52.052;8.354;2023-01-24T05:36:43;2.70;99.90
16955;DHT22;8594;52.052;8.354;2023-01-24T05:39:10;2.80;99.90
16955;DHT22;8594;52.052;8.354;2023-01-24T05:41:37;3.00;99.90
16955;DHT22;8594;52.052;8.354;2023-01-24T05:44:04;3.00;99.90
16955;DHT22;8594;52.052;8.354;2023-01-24T05:46:32;3.10;99.90
16955;DHT22;8594;52.052;8.354;2023-01-24T05:48:59;3.20;99.90
16955;DHT22;8594;52.052;8.354;2023-01-24T05:51:26;3.10;99.90
16955;DHT22;8594;52.052;8.354;2023-01-24T05:53:53;3.10;99.90
16955;DHT22;8594;52.052;8.354;2023-01-24T05:56:20;3.00;99.90
16955;DHT22;8594;52.052;8.354;2023-01-24T05:58:47;2.90;99.90
16955;DHT22;8594;52.052;8.354;2023-01-24T06:01:16;3.10;99.90
16955;DHT22;8594;52.052;8.354;2023-01-24T06:03:47;3.10;99.90
16955;DHT22;8594;52.052;8.354;2023-01-24T06:06:18;3.10;99.90
16955;DHT22;8594;52.052;8.354;2023-01-24T06:08:46;3.20;99.90
16955;DHT22;8594;52.052;8.354;2023-01-24T06:11:17;3.30;99.90
16955;DHT22;8594;52.052;8.354;2023-01-24T06:13:45;3.10;99.90
16955;DHT22;8594;52.052;8.354;2023-01-24T06:16:14;3.10;99.90
16955;DHT22;8594;52.052;8.354;2023-01-24T06:18:42;2.90;99.90
16955;DHT22;8594;52.052;8.354;2023-01-24T06:21:20;3.00;99.90
16955;DHT22;8594;52.052;8.354;2023-01-24T06:24:01;3.10;99.90
16955;DHT22;8594;52.052;8.354;2023-01-24T06:26:31;3.00;99.90
16955;DHT22;8594;52.052;8.354;2023-01-24T06:28:59;3.00;99.90
16955;DHT22;8594;52.052;8.354;2023-01-24T06:31:30;3.10;99.90
16955;DHT22;8594;52.052;8.354;2023-01-24T06:34:19;3.10;99.90
16955;DHT22;8594;52.052;8.354;2023-01-24T06:37:10;3.10;99.90
16955;DHT22;8594;52.052;8.354;2023-01-24T06:39:47;3.00;99.90
16955;DHT22;8594;52.052;8.354;2023-01-24T06:42:17;3.10;99.90
16955;DHT22;8594;52.052;8.354;2023-01-24T06:44:44;3.10;99.90
16955;DHT22;8594;52.052;8.354;2023-01-24T06:47:11;3.20;99.90
16955;DHT22;8594;52.052;8.354;2023-01-24T06:49:39;3.10;99.90
16955;DHT22;8594;52.052;8.354;2023-01-24T06:52:08;2.90;99.90
16955;DHT22;8594;52.052;8.354;2023-01-24T06:54:35;2.90;99.90
16955;DHT22;8594;52.052;8.354;2023-01-24T06:57:03;3.00;99.90
16955;DHT22;8594;52.052;8.354;2023-01-24T06:59:30;3.10;99.90
16955;DHT22;8594;52.052;8.354;2023-01-24T07:01:56;3.00;99.90
16955;DHT22;8594;52.052;8.354;2023-01-24T07:04:23;2.90;99.90
16955;DHT22;8594;52.052;8.354;2023-01-24T07:06:50;2.80;99.90
16955;DHT22;8594;52.052;8.354;2023-01-24T07:09:19;2.80;99.90
16955;DHT22;8594;52.052;8.354;2023-01-24T07:11:47;2.90;99.90
16955;DHT22;8594;52.052;8.354;2023-01-24T07:14:17;2.80;99.90
16955;DHT22;8594;52.052;8.354;2023-01-24T07:16:44;2.70;99.90
16955;DHT22;8594;52.052;8.354;2023-01-24T07:19:14;2.60;99.90
16955;DHT22;8594;52.052;8.354;2023-01-24T07:21:43;2.60;99.90
16955;DHT22;8594;52.052;8.354;2023-01-24T07:24:13;2.70;99.90
16955;DHT22;8594;52.052;8.354;2023-01-24T07:26:44;2.60;99.90
16955;DHT22;8594;52.052;8.354;2023-01-24T07:29:11;2.60;99.90
16955;DHT22;8594;52.052;8.354;2023-01-24T07:31:38;2.50;99.90
16955;DHT22;8594;52.052;8.354;2023-01-24T07:34:05;2.70;99.90
16955;DHT22;8594;52.052;8.354;2023-01-24T07:36:32;2.80;99.90
16955;DHT22;8594;52.052;8.354;2023-01-24T07:38:59;2.70;99.90
16955;DHT22;8594;52.052;8.354;2023-01-24T07:41:25;2.70;99.90
16955;DHT22;8594;52.052;8.354;2023-01-24T07:43:55;2.70;99.90
16955;DHT22;8594;52.052;8.354;2023-01-24T07:46:21;2.70;99.90
16955;DHT22;8594;52.052;8.354;2023-01-24T07:48:48;2.80;99.90
16955;DHT22;8594;52.052;8.354;2023-01-24T07:51:15;2.90;99.90
16955;DHT22;8594;52.052;8.354;2023-01-24T07:53:42;3.10;99.90
16955;DHT22;8594;52.052;8.354;2023-01-24T07:56:09;3.00;99.90
16955;DHT22;8594;52.052;8.354;2023-01-24T07:58:36;2.90;99.90
16955;DHT22;8594;52.052;8.354;2023-01-24T08:01:04;3.00;99.90
16955;DHT22;8594;52.052;8.354;2023-01-24T08:03:31;3.00;99.90
16955;DHT22;8594;52.052;8.354;2023-01-24T08:05:59;3.00;99.90
16955;DHT22;8594;52.052;8.354;2023-01-24T08:08:25;3.10;99.90
16955;DHT22;8594;52.052;8.354;2023-01-24T08:10:52;3.10;99.90
16955;DHT22;8594;52.052;8.354;2023-01-24T08:13:19;3.00;99.90
16955;DHT22;8594;52.052;8.354;2023-01-24T08:15:47;2.80;99.90
16955;DHT22;8594;52.052;8.354;2023-01-24T08:18:15;2.70;99.90
16955;DHT22;8594;52.052;8.354;2023-01-24T08:20:43;2.50;99.90
16955;DHT22;8594;52.052;8.354;2023-01-24T08:23:09;2.70;99.90
16955;DHT22;8594;52.052;8.354;2023-01-24T08:25:36;2.90;99.90
16955;DHT22;8594;52.052;8.354;2023-01-24T08:28:03;3.00;99.90
16955;DHT22;8594;52.052;8.354;2023-01-24T08:30:30;2.90;99.90
16955;DHT22;8594;52.052;8.354;2023-01-24T08:33:00;2.90;99.90
16955;DHT22;8594;52.052;8.354;2023-01-24T08:35:30;3.00;99.90
16955;DHT22;8594;52.052;8.354;2023-01-24T08:37:58;2.90;99.90
16955;DHT22;8594;52.052;8.354;2023-01-24T08:40:25;3.00;99.90
16955;DHT22;8594;52.052;8.354;2023-01-24T08:42:52;3.00;99.90
16955;DHT22;8594;52.052;8.354;2023-01-24T08:45:19;2.90;99.90
16955;DHT22;8594;52.052;8.354;2023-01-24T08:47:50;3.00;99.90
16955;DHT22;8594;52.052;8.354;2023-01-24T08:50:18;3.10;99.90
16955;DHT22;8594;52.052;8.354;2023-01-24T08:52:47;3.10;99.90
16955;DHT22;8594;52.052;8.354;2023-01-24T08:55:15;3.20;99.90
16955;DHT22;8594;52.052;8.354;2023-01-24T08:57:41;3.10;99.90
16955;DHT22;8594;52.052;8.354;2023-01-24T09:00:10;3.10;99.90
16955;DHT22;8594;52.052;8.354;2023-01-24T09:02:37;3.20;99.90
16955;DHT22;8594;52.052;8.354;2023-01-24T09:05:05;3.30;99.90
16955;DHT22;8594;52.052;8.354;2023-01-24T09:07:33;3.00;99.90
16955;DHT22;8594;52.052;8.354;2023-01-24T09:10:03;3.10;99.90
16955;DHT22;8594;52.052;8.354;2023-01-24T09:12:30;3.10;99.90
16955;DHT22;8594;52.052;8.354;2023-01-24T09:14:58;3.10;99.90
16955;DHT22;8594;52.052;8.354;2023-01-24T09:17:24;3.10;99.90
16955;DHT22;8594;52.052;8.354;2023-01-24T09:19:51;3.20;99.90
16955;DHT22;8594;52.052;8.354;2023-01-24T09:22:18;3.30;99.90
16955;DHT22;8594;52.052;8.354;2023-01-24T09:24:45;3.20;99.90
16955;DHT22;8594;52.052;8.354;2023-01-24T09:27:13;3.10;99.90
16955;DHT22;8594;52.052;8.354;2023-01-24T09:29:40;3.10;99.90
16955;DHT22;8594;52.052;8.354;2023-01-24T09:32:07;3.20;99.90
16955;DHT22;8594;52.052;8.354;2023-01-24T09:34:33;3.00;99.90
16955;DHT22;8594;52.052;8.354;2023-01-24T09:37:00;3.00;99.90
16955;DHT22;8594;52.052;8.354;2023-01-24T09:39:27;3.10;99.90
16955;DHT22;8594;52.052;8.354;2023-01-24T09:41:59;3.10;99.90
16955;DHT22;8594;52.052;8.354;2023-01-24T09:44:37;3.00;99.90
16955;DHT22;8594;52.052;8.354;2023-01-24T09:47:17;3.20;99.90
16955;DHT22;8594;52.052;8.354;2023-01-24T09:49:50;3.30;99.90
16955;DHT22;8594;52.052;8.354;2023-01-24T09:52:27;3.30;99.90
16955;DHT22;8594;52.052;8.354;2023-01-24T09:55:02;3.30;99.90
16955;DHT22;8594;52.052;8.354;2023-01-24T09:57:45;3.40;99.90
16955;DHT22;8594;52.052;8.354;2023-01-24T10:00:22;3.30;99.90
16955;DHT22;8594;52.052;8.354;2023-01-24T10:02:53;3.20;99.90
16955;DHT22;8594;52.052;8.354;2023-01-24T10:05:25;3.30;99.90
16955;DHT22;8594;52.052;8.354;2023-01-24T10:08:15;3.40;99.90
16955;DHT22;8594;52.052;8.354;2023-01-24T10:10:53;3.30;99.90
16955;DHT22;8594;52.052;8.354;2023-01-24T10:13:41;3.30;99.90
16955;DHT22;8594;52.052;8.354;2023-01-24T10:16:56;3.20;99.90
16955;DHT22;8594;52.052;8.354;2023-01-24T10:19:53;3.10;99.90
16955;DHT22;8594;52.052;8.354;2023-01-24T10:22:50;3.30;99.90
16955;DHT22;8594;52.052;8.354;2023-01-24T10:25:29;3.40;99.90
16955;DHT22;8594;52.052;8.354;2023-01-24T10:28:03;3.60;99.90
16955;DHT22;8594;52.052;8.354;2023-01-24T10:30:37;3.80;99.90
16955;DHT22;8594;52.052;8.354;2023-01-24T10:33:14;3.80;99.90
16955;DHT22;8594;52.052;8.354;2023-01-24T10:35:52;3.80;99.90
16955;DHT22;8594;52.052;8.354;2023-01-24T10:38:22;3.70;99.90
16955;DHT22;8594;52.052;8.354;2023-01-24T10:40:51;3.50;99.90
16955;DHT22;8594;52.052;8.354;2023-01-24T10:43:23;3.50;99.90
16955;DHT22;8594;52.052;8.354;2023-01-24T10:46:03;3.50;99.90
16955;DHT22;8594;52.052;8.354;2023-01-24T10:48:42;3.50;99.90
16955;DHT22;8594;52.052;8.354;2023-01-24T10:51:14;3.50;99.90
16955;DHT22;8594;52.052;8.354;2023-01-24T10:53:42;3.50;99.90
16955;DHT22;8594;52.052;8.354;2023-01-24T10:56:10;3.50;99.90
16955;DHT22;8594;52.052;8.354;2023-01-24T10:58:41;3.40;99.90
16955;DHT22;8594;52.052;8.354;2023-01-24T11:01:17;3.50;99.90
16955;DHT22;8594;52.052;8.354;2023-01-24T11:03:48;3.40;99.90
16955;DHT22;8594;52.052;8.354;2023-01-24T11:06:25;3.50;99.90
16955;DHT22;8594;52.052;8.354;2023-01-24T11:09:02;3.50;99.90
16955;DHT22;8594;52.052;8.354;2023-01-24T11:11:40;3.60;99.90
16955;DHT22;8594;52.052;8.354;2023-01-24T11:14:13;3.50;99.90
16955;DHT22;8594;52.052;8.354;2023-01-24T11:16:44;3.50;99.90
16955;DHT22;8594;52.052;8.354;2023-01-24T11:19:28;3.50;99.90
16955;DHT22;8594;52.052;8.354;2023-01-24T11:21:58;3.60;99.90
16955;DHT22;8594;52.052;8.354;2023-01-24T11:24:27;3.80;99.90
16955;DHT22;8594;52.052;8.354;2023-01-24T11:26:57;3.90;99.90
16955;DHT22;8594;52.052;8.354;2023-01-24T11:29:29;3.80;99.90
16955;DHT22;8594;52.052;8.354;2023-01-24T11:32:05;3.80;99.90
16955;DHT22;8594;52.052;8.354;2023-01-24T11:34:57;3.70;99.90
16955;DHT22;8594;52.052;8.354;2023-01-24T11:37:40;3.60;99.90
16955;DHT22;8594;52.052;8.354;2023-01-24T11:40:33;3.60;99.90
16955;DHT22;8594;52.052;8.354;2023-01-24T11:46:13;3.50;99.90
16955;DHT22;8594;52.052;8.354;2023-01-24T11:48:52;3.50;99.90
16955;DHT22;8594;52.052;8.354;2023-01-24T11:51:29;3.50;99.90
16955;DHT22;8594;52.052;8.354;2023-01-24T11:54:23;3.50;99.90
16955;DHT22;8594;52.052;8.354;2023-01-24T11:57:01;3.40;99.90
16955;DHT22;8594;52.052;8.354;2023-01-24T11:59:47;3.50;99.90
16955;DHT22;8594;52.052;8.354;2023-01-24T12:02:36;3.50;99.90
16955;DHT22;8594;52.052;8.354;2023-01-24T12:05:33;3.50;99.90
16955;DHT22;8594;52.052;8.354;2023-01-24T12:08:20;3.40;99.90
16955;DHT22;8594;52.052;8.354;2023-01-24T12:11:01;3.30;99.90
16955;DHT22;8594;52.052;8.354;2023-01-24T12:13:44;3.20;99.90
16955;DHT22;8594;52.052;8.354;2023-01-24T12:16:25;3.40;99.90
16955;DHT22;8594;52.052;8.354;2023-01-24T12:19:15;3.50;99.90
16955;DHT22;8594;52.052;8.354;2023-01-24T12:21:59;3.60;99.90
16955;DHT22;8594;52.052;8.354;2023-01-24T12:24:30;3.60;99.90
16955;DHT22;8594;52.052;8.354;2023-01-24T12:27:03;3.40;99.90
16955;DHT22;8594;52.052;8.354;2023-01-24T12:29:39;3.40;99.90
16955;DHT22;8594;52.052;8.354;2023-01-24T12:32:15;3.40;99.90
16955;DHT22;8594;52.052;8.354;2023-01-24T12:34:51;3.60;99.90
16955;DHT22;8594;52.052;8.354;2023-01-24T12:37:26;3.50;99.90
16955;DHT22;8594;52.052;8.354;2023-01-24T12:40:03;3.60;99.90
16955;DHT22;8594;52.052;8.354;2023-01-24T12:42:47;3.70;99.90
16955;DHT22;8594;52.052;8.354;2023-01-24T12:45:26;3.60;99.90
16955;DHT22;8594;52.052;8.354;2023-01-24T12:48:01;3.50;99.90
16955;DHT22;8594;52.052;8.354;2023-01-24T12:50:40;3.30;99.90
16955;DHT22;8594;52.052;8.354;2023-01-24T12:53:19;3.10;99.90
16955;DHT22;8594;52.052;8.354;2023-01-24T12:55:59;3.10;99.90
16955;DHT22;8594;52.052;8.354;2023-01-24T12:58:31;3.00;99.90
16955;DHT22;8594;52.052;8.354;2023-01-24T13:04:16;3.00;99.90
16955;DHT22;8594;52.052;8.354;2023-01-24T13:06:59;3.00;99.90
16955;DHT22;8594;52.052;8.354;2023-01-24T13:09:37;3.00;99.90
16955;DHT22;8594;52.052;8.354;2023-01-24T13:12:13;2.90;99.90
16955;DHT22;8594;52.052;8.354;2023-01-24T13:14:44;3.10;99.90
16955;DHT22;8594;52.052;8.354;2023-01-24T13:17:27;3.30;99.90
16955;DHT22;8594;52.052;8.354;2023-01-24T13:23:44;3.30;99.90
16955;DHT22;8594;52.052;8.354;2023-01-24T13:26:33;3.40;99.90
16955;DHT22;8594;52.052;8.354;2023-01-24T13:29:21;3.50;99.90
16955;DHT22;8594;52.052;8.354;2023-01-24T13:32:04;3.30;99.90
16955;DHT22;8594;52.052;8.354;2023-01-24T13:34:36;3.40;99.90
16955;DHT22;8594;52.052;8.354;2023-01-24T13:37:18;3.60;99.90
16955;DHT22;8594;52.052;8.354;2023-01-24T13:39:47;3.60;99.90
16955;DHT22;8594;52.052;8.354;2023-01-24T13:42:32;3.40;99.90
16955;DHT22;8594;52.052;8.354;2023-01-24T13:48:45;3.60;99.90
16955;DHT22;8594;52.052;8.354;2023-01-24T13:51:34;3.60;99.90
16955;DHT22;8594;52.052;8.354;2023-01-24T13:54:18;3.60;99.90
16955;DHT22;8594;52.052;8.354;2023-01-24T13:57:09;3.50;99.90
16955;DHT22;8594;52.052;8.354;2023-01-24T13:59:59;3.50;99.90
16955;DHT22;8594;52.052;8.354;2023-01-24T14:02:43;3.50;99.90
16955;DHT22;8594;52.052;8.354;2023-01-24T14:05:41;3.50;99.90
16955;DHT22;8594;52.052;8.354;2023-01-24T14:08:35;3.50;99.90
16955;DHT22;8594;52.052;8.354;2023-01-24T14:11:35;3.30;99.90
16955;DHT22;8594;52.052;8.354;2023-01-24T14:14:27;3.30;99.90
16955;DHT22;8594;52.052;8.354;2023-01-24T14:17:25;3.30;99.90
16955;DHT22;8594;52.052;8.354;2023-01-24T14:19:57;3.30;99.90
16955;DHT22;8594;52.052;8.354;2023-01-24T14:22:34;3.40;99.90
16955;DHT22;8594;52.052;8.354;2023-01-24T14:25:20;3.30;99.90
16955;DHT22;8594;52.052;8.354;2023-01-24T14:27:58;3.30;99.90
16955;DHT22;8594;52.052;8.354;2023-01-24T14:30:32;3.30;99.90
16955;DHT22;8594;52.052;8.354;2023-01-24T14:33:23;3.30;99.90
16955;DHT22;8594;52.052;8.354;2023-01-24T14:36:05;3.20;99.90
16955;DHT22;8594;52.052;8.354;2023-01-24T14:38:38;3.20;99.90
16955;DHT22;8594;52.052;8.354;2023-01-24T14:41:10;3.30;99.90
16955;DHT22;8594;52.052;8.354;2023-01-24T14:43:44;3.10;99.90
16955;DHT22;8594;52.052;8.354;2023-01-24T14:46:12;3.20;99.90
16955;DHT22;8594;52.052;8.354;2023-01-24T14:48:46;3.20;99.90
16955;DHT22;8594;52.052;8.354;2023-01-24T14:51:17;3.30;99.90
16955;DHT22;8594;52.052;8.354;2023-01-24T14:53:49;3.30;99.90
16955;DHT22;8594;52.052;8.354;2023-01-24T14:56:17;3.40;99.90
16955;DHT22;8594;52.052;8.354;2023-01-24T14:58:46;3.40;99.90
16955;DHT22;8594;52.052;8.354;2023-01-24T15:01:26;3.40;99.90
16955;DHT22;8594;52.052;8.354;2023-01-24T15:03:56;3.20;99.90
16955;DHT22;8594;52.052;8.354;2023-01-24T15:06:27;3.30;99.90
16955;DHT22;8594;52.052;8.354;2023-01-24T15:08:56;3.40;99.90
16955;DHT22;8594;52.052;8.354;2023-01-24T15:11:27;3.40;99.90
16955;DHT22;8594;52.052;8.354;2023-01-24T15:14:00;3.40;99.90
16955;DHT22;8594;52.052;8.354;2023-01-24T15:16:33;3.50;99.90
16955;DHT22;8594;52.052;8.354;2023-01-24T15:19:04;3.50;99.90
16955;DHT22;8594;52.052;8.354;2023-01-24T15:21:37;3.50;99.90
16955;DHT22;8594;52.052;8.354;2023-01-24T15:24:17;3.60;99.90
16955;DHT22;8594;52.052;8.354;2023-01-24T15:26:46;3.50;99.90
16955;DHT22;8594;52.052;8.354;2023-01-24T15:29:42;3.30;99.90
16955;DHT22;8594;52.052;8.354;2023-01-24T15:32:39;3.30;99.90
16955;DHT22;8594;52.052;8.354;2023-01-24T15:35:23;3.20;99.90
16955;DHT22;8594;52.052;8.354;2023-01-24T15:41:17;3.20;99.90
16955;DHT22;8594;52.052;8.354;2023-01-24T15:44:01;3.40;99.90
16955;DHT22;8594;52.052;8.354;2023-01-24T15:46:33;3.30;99.90
16955;DHT22;8594;52.052;8.354;2023-01-24T15:49:29;3.40;99.90
16955;DHT22;8594;52.052;8.354;2023-01-24T15:54:56;3.40;99.90
16955;DHT22;8594;52.052;8.354;2023-01-24T15:57:28;3.30;99.90
16955;DHT22;8594;52.052;8.354;2023-01-24T15:59:59;3.20;99.90
16955;DHT22;8594;52.052;8.354;2023-01-24T16:02:29;3.00;99.90
16955;DHT22;8594;52.052;8.354;2023-01-24T16:04:57;2.80;99.90
16955;DHT22;8594;52.052;8.354;2023-01-24T16:07:24;2.70;99.90
16955;DHT22;8594;52.052;8.354;2023-01-24T16:09:51;2.60;99.90
16955;DHT22;8594;52.052;8.354;2023-01-24T16:12:23;2.60;99.90
16955;DHT22;8594;52.052;8.354;2023-01-24T16:14:53;2.60;99.90
16955;DHT22;8594;52.052;8.354;2023-01-24T16:17:22;2.60;99.90
16955;DHT22;8594;52.052;8.354;2023-01-24T16:19:51;2.60;99.90
16955;DHT22;8594;52.052;8.354;2023-01-24T16:22:18;2.70;99.90
16955;DHT22;8594;52.052;8.354;2023-01-24T16:24:44;2.60;99.90
16955;DHT22;8594;52.052;8.354;2023-01-24T16:27:13;2.70;99.90
16955;DHT22;8594;52.052;8.354;2023-01-24T16:29:42;2.80;99.90
16955;DHT22;8594;52.052;8.354;2023-01-24T16:32:20;3.00;99.90
16955;DHT22;8594;52.052;8.354;2023-01-24T16:34:49;2.90;99.90
16955;DHT22;8594;52.052;8.354;2023-01-24T16:37:22;2.60;99.90
16955;DHT22;8594;52.052;8.354;2023-01-24T16:39:56;2.60;99.90
16955;DHT22;8594;52.052;8.354;2023-01-24T16:42:26;2.60;99.90
16955;DHT22;8594;52.052;8.354;2023-01-24T16:44:56;2.70;99.90
16955;DHT22;8594;52.052;8.354;2023-01-24T16:47:24;2.70;99.90
16955;DHT22;8594;52.052;8.354;2023-01-24T16:49:52;2.80;99.90
16955;DHT22;8594;52.052;8.354;2023-01-24T16:52:21;2.80;99.90
16955;DHT22;8594;52.052;8.354;2023-01-24T16:54:49;2.80;99.90
16955;DHT22;8594;52.052;8.354;2023-01-24T16:57:17;2.80;99.90